Aeroporto :
LOGIN :

Iscrizione | Disclaimer

   EN    FR    IT 

 










Sommario :    VFR   VFR Marginale   IFR   IFR Intensivo   IFR Molto Intensivo
Visibilità : 
Base nubi : 
>= 8 km
>= 3000ft
5 / 8 km
1000 / 3000 ft
1500m / 5 km
500 / 1000 ft
800 / 1500m
200 / 500 ft
< 800m
< 200 ft
Simboli :   Temporali  Nebbia  Neve Forte  Precipitazioni Forti  Vento > 20 kt
SIGMETs :   Varie  Temporali  Ghiacco  Turbolenza  Onda orograficha  Ceneri Vulcaniche







- Altitudine del aeroporto : 2220 ft


LOXZ - Zeltweg AB

ULTIMO METAR :
  • 260720Z 25005KT 20KM FEW048SC BKN190AS 16/08 Q1014 NOSIG

METARs OBSOLETI :
  • 260650Z 24006KT 20KM FEW050SC BKN190AS 15/08 Q1014 NOSIG
  • 260620Z 23006KT 20KM FEW050SC BKN190AS 15/08 Q1014 NOSIG
  • 260550Z 31005KT 20KM FEW050SC BKN190AS 14/07 Q1014 NOSIG
  • 260520Z 25009KT 20KM FEW050SC BKN190AS 14/07 Q1014 NOSIG
  • 260450Z 23005KT 20KM FEW050SC BKN200CS 12/05 Q1014

TAF TAF LOXZ
Valido dal 26 a 06 ore il 26 a 15 ore UTC


260515Z 2606/2615 24010KT 9999 FEW050 BKN180
TEMPO 2610/2615 20015G25KT FEW050 SCT150 BKN250
Nessun NOTAM noto per questo aeroporto.
1 SIGMET conosciuto per la FIR Wien (LOVV) :
 
Turbolenza severa
LOVV SIGMET 5 VALID 260500/260800 LOWW
LOVV WIEN FIR SEV TURB FCST WI N4816 E01341 - N4733 E01633 - N4651 E01544 - N4734 E01309 - N4816 E01341 FL340/410 STNR NC=



MetMap, La meteo Aeronautica in un colpo d'occhio ! - Copyright ORBIFLY Dicembre 2007 - Disclaimer

ORBIFLY MET'MAP TEAM :

Programmazione e sviluppo : Alexandra Zaïnal
Concezione e sviluppo : Baudouin d'Aumeries
Co-Programmazione e sviluppo : Marc-Olivier Méhu
Supporto tecnico e logistico : Manuel Goepfert
Aiuto per la traduzione : Arnaldo La Scala

Contatto : metmap@orbifly.com




FONTI E CREDITI :

   NOAA